Time;durP1;ratioP1;P1;durP2;ratioP2;P2;SDS_P1;SDS_P2;PMS_P1;PMS_P2;Temp;Humidity;BMP_temperature;BMP_pressure;BME280_temperature;BME280_humidity;BME280_pressure;Samples;Min_cycle;Max_cycle;Signal;HPM_P1;HPM_P2
2022/07/21 00:00:35;;;;;;;5.95;4.68;;;20.20;77.00;;;;;;5154475;27;20030;-71
2022/07/21 00:03:01;;;;;;;5.30;4.57;;;20.10;78.60;;;;;;5154471;27;20067;-80
2022/07/21 00:05:27;;;;;;;7.32;4.55;;;20.10;78.60;;;;;;5154752;27;20166;-80
2022/07/21 00:07:54;;;;;;;7.45;5.10;;;20.10;80.00;;;;;;5156570;27;20035;-71
2022/07/21 00:10:22;;;;;;;4.75;4.30;;;19.90;81.70;;;;;;5158257;27;20107;-79
2022/07/21 00:12:48;;;;;;;7.47;4.40;;;19.80;83.30;;;;;;5156949;27;20102;-79
2022/07/21 00:15:16;;;;;;;5.28;4.78;;;19.80;85.10;;;;;;5158189;27;20383;-79
2022/07/21 00:17:42;;;;;;;5.38;4.65;;;19.70;85.80;;;;;;5079330;27;20052;-80
2022/07/21 00:20:09;;;;;;;7.45;4.97;;;19.60;87.40;;;;;;5051595;28;20052;-72
2022/07/21 00:22:35;;;;;;;10.63;5.15;;;19.50;89.10;;;;;;5052701;28;20451;-76
2022/07/21 00:25:01;;;;;;;5.68;4.88;;;19.50;91.20;;;;;;5052661;28;20062;-72
2022/07/21 00:27:27;;;;;;;7.30;5.43;;;19.30;91.60;;;;;;5052831;28;20028;-79
2022/07/21 00:29:52;;;;;;;10.05;5.35;;;19.30;92.70;;;;;;5052762;28;20095;-78
2022/07/21 00:32:18;;;;;;;5.13;4.35;;;19.10;93.90;;;;;;5052567;28;20033;-71
2022/07/21 00:34:44;;;;;;;6.90;5.15;;;19.10;95.30;;;;;;5052568;28;20462;-79
2022/07/21 00:37:10;;;;;;;7.03;4.93;;;19.00;95.20;;;;;;5051496;27;20029;-71
2022/07/21 00:39:36;;;;;;;5.38;4.88;;;18.90;95.50;;;;;;5052570;28;20022;-71
2022/07/21 00:42:03;;;;;;;5.55;4.40;;;18.80;95.80;;;;;;5052508;28;20050;-80
2022/07/21 00:44:29;;;;;;;7.10;4.97;;;18.70;96.70;;;;;;5051230;28;20028;-79
2022/07/21 00:46:56;;;;;;;5.10;4.60;;;18.70;96.40;;;;;;5052324;28;20056;-71
2022/07/21 00:49:22;;;;;;;5.32;4.60;;;18.60;96.60;;;;;;5052351;28;20024;-72
2022/07/21 00:51:49;;;;;;;8.13;4.90;;;18.60;98.40;;;;;;5050930;28;20119;-71
2022/07/21 00:54:16;;;;;;;5.60;4.65;;;18.50;97.80;;;;;;5052371;28;20028;-71
2022/07/21 00:56:42;;;;;;;7.07;5.28;;;18.40;98.20;;;;;;5052117;28;20033;-78
2022/07/21 00:59:07;;;;;;;6.45;4.47;;;18.30;98.40;;;;;;5114112;27;20022;-78
2022/07/21 01:01:33;;;;;;;7.47;5.10;;;18.30;99.20;;;;;;5114139;27;20032;-77
2022/07/21 01:03:59;;;;;;;11.80;5.78;;;18.30;99.90;;;;;;5050870;28;20029;-78
2022/07/21 01:06:25;;;;;;;7.18;5.20;;;18.20;99.90;;;;;;5051992;28;20477;-71
2022/07/21 01:08:52;;;;;;;8.73;5.72;;;18.10;99.90;;;;;;5052088;28;20029;-79
2022/07/21 01:11:20;;;;;;;7.32;4.95;;;18.10;99.90;;;;;;5052024;28;20427;-78
2022/07/21 01:13:47;;;;;;;5.63;4.90;;;18.00;99.90;;;;;;5050797;28;20098;-79
2022/07/21 01:16:15;;;;;;;7.03;4.70;;;17.90;99.90;;;;;;5051784;28;20043;-71
2022/07/21 01:18:41;;;;;;;8.88;6.05;;;17.90;99.90;;;;;;5050253;28;20025;-72
2022/07/21 01:21:37;;;;;;;7.55;5.80;;;17.80;99.90;;;;;;5051506;28;20493;-79
2022/07/21 01:24:04;;;;;;;6.90;5.55;;;17.80;99.90;;;;;;5050608;28;20087;-79
2022/07/21 01:26:31;;;;;;;6.32;5.18;;;17.80;99.90;;;;;;5051622;28;20100;-71
2022/07/21 01:28:57;;;;;;;5.70;5.10;;;17.70;99.90;;;;;;5051572;28;20029;-72
2022/07/21 01:31:23;;;;;;;6.03;5.40;;;17.70;99.90;;;;;;5051623;28;20031;-71
2022/07/21 01:33:50;;;;;;;6.75;5.32;;;17.60;99.90;;;;;;5051867;28;20078;-71
2022/07/21 01:36:16;;;;;;;5.95;4.80;;;17.60;99.90;;;;;;5050261;28;20021;-71
2022/07/21 01:41:29;;;;;;;5.88;5.22;;;17.60;99.90;;;;;;5051529;28;20065;-79
2022/07/21 01:43:56;;;;;;;7.00;5.28;;;17.60;99.90;;;;;;5051418;28;20029;-79
2022/07/21 01:46:22;;;;;;;8.38;4.63;;;17.50;99.90;;;;;;5050094;28;20029;-71
2022/07/21 01:48:47;;;;;;;7.80;5.03;;;17.50;99.90;;;;;;5050245;28;20393;-78
2022/07/21 01:51:13;;;;;;;5.30;4.80;;;17.50;99.90;;;;;;5051331;28;20028;-79
2022/07/21 01:53:39;;;;;;;6.68;5.13;;;17.40;99.90;;;;;;5050076;28;20057;-72
2022/07/21 01:56:06;;;;;;;6.32;5.07;;;17.40;99.90;;;;;;5051285;28;20037;-71
2022/07/21 01:58:32;;;;;;;6.68;5.70;;;17.50;99.90;;;;;;5051133;28;20025;-72
2022/07/21 02:00:59;;;;;;;8.52;5.78;;;17.60;99.90;;;;;;5051145;28;20021;-71
2022/07/21 02:03:24;;;;;;;6.82;5.10;;;17.50;99.90;;;;;;5051172;28;20432;-79
2022/07/21 02:05:50;;;;;;;6.30;5.30;;;17.40;99.90;;;;;;5050006;28;20112;-79
2022/07/21 02:08:16;;;;;;;7.28;5.18;;;17.30;99.90;;;;;;5051131;28;20025;-71
2022/07/21 02:10:41;;;;;;;5.75;5.03;;;17.20;99.90;;;;;;5049883;28;20055;-71
2022/07/21 02:13:07;;;;;;;8.52;4.93;;;17.10;99.90;;;;;;5051136;28;20028;-71
2022/07/21 02:15:33;;;;;;;7.20;4.88;;;17.10;99.90;;;;;;5051122;28;20035;-78
2022/07/21 02:17:59;;;;;;;13.00;5.80;;;17.00;99.90;;;;;;5049560;28;20029;-79
2022/07/21 02:20:26;;;;;;;5.82;4.68;;;17.10;99.90;;;;;;5049790;28;20066;-80
2022/07/21 02:22:52;;;;;;;6.43;5.07;;;17.10;99.90;;;;;;5050765;28;20045;-71
2022/07/21 02:25:19;;;;;;;7.10;5.82;;;17.10;99.90;;;;;;5049615;28;20021;-72
2022/07/21 02:27:46;;;;;;;7.80;5.22;;;17.10;99.90;;;;;;5049408;28;20040;-71
2022/07/21 02:30:13;;;;;;;8.20;5.22;;;17.10;99.90;;;;;;5048834;28;20025;-71
2022/07/21 02:32:39;;;;;;;14.60;5.53;;;17.10;99.90;;;;;;5049499;28;20391;-71
2022/07/21 02:35:05;;;;;;;5.50;4.90;;;17.00;99.90;;;;;;5050708;28;20021;-72
2022/07/21 02:37:32;;;;;;;8.40;5.50;;;17.00;99.90;;;;;;5049411;28;20040;-71
2022/07/21 02:39:57;;;;;;;4.93;4.43;;;17.00;99.90;;;;;;5049381;28;20040;-72
2022/07/21 02:42:23;;;;;;;5.72;5.05;;;17.20;99.90;;;;;;5050481;28;20040;-71
2022/07/21 02:44:49;;;;;;;6.47;4.95;;;17.40;99.90;;;;;;5049436;28;20469;-78
2022/07/21 02:47:15;;;;;;;7.40;5.43;;;17.50;99.90;;;;;;5049198;28;20116;-71
2022/07/21 02:49:40;;;;;;;6.60;5.53;;;17.70;99.90;;;;;;5049206;28;20092;-78
2022/07/21 02:52:06;;;;;;;6.80;5.13;;;17.70;99.90;;;;;;5050500;28;20096;-71
2022/07/21 02:54:32;;;;;;;7.65;5.72;;;17.80;99.00;;;;;;5049264;28;20021;-79
2022/07/21 02:56:58;;;;;;;6.57;5.47;;;17.90;98.10;;;;;;5050319;28;20424;-79
2022/07/21 02:59:23;;;;;;;7.38;5.65;;;17.90;96.80;;;;;;5050008;28;20029;-78
2022/07/21 03:01:49;;;;;;;6.28;5.68;;;18.00;95.50;;;;;;5050587;28;20022;-79
2022/07/21 03:04:15;;;;;;;8.18;5.07;;;18.00;98.10;;;;;;5049072;28;20033;-71
2022/07/21 03:06:42;;;;;;;6.72;5.63;;;18.00;98.20;;;;;;5050263;28;20029;-79
2022/07/21 03:09:08;;;;;;;6.35;5.60;;;18.00;99.30;;;;;;5050400;28;20422;-78
2022/07/21 03:11:34;;;;;;;9.52;5.57;;;17.90;98.80;;;;;;5048881;28;20421;-71
2022/07/21 03:14:00;;;;;;;8.38;5.10;;;17.90;99.90;;;;;;5048952;28;20062;-72
2022/07/21 03:16:26;;;;;;;7.95;6.05;;;17.80;99.90;;;;;;5048857;28;20017;-72
2022/07/21 03:18:52;;;;;;;6.50;5.25;;;17.80;99.90;;;;;;5050372;28;20412;-79
2022/07/21 03:21:18;;;;;;;8.88;5.80;;;17.70;99.90;;;;;;5049889;28;20029;-71
2022/07/21 03:23:45;;;;;;;7.50;5.55;;;17.70;99.90;;;;;;5130937;28;20479;-71
2022/07/21 03:26:15;;;;;;;7.40;5.90;;;17.80;99.90;;;;;;5132848;27;20373;-72
2022/07/21 03:28:41;;;;;;;6.93;5.63;;;17.80;99.90;;;;;;5134188;27;20030;-71
2022/07/21 03:31:07;;;;;;;7.60;5.57;;;17.90;99.90;;;;;;5132900;27;20027;-72
2022/07/21 03:33:33;;;;;;;9.55;5.55;;;18.00;99.90;;;;;;5134008;27;20385;-73
2022/07/21 03:35:59;;;;;;;6.82;5.70;;;18.00;99.90;;;;;;5132865;27;20072;-79
2022/07/21 03:38:25;;;;;;;8.00;6.78;;;18.00;99.90;;;;;;5133948;27;20023;-79
2022/07/21 03:40:51;;;;;;;6.47;5.78;;;18.20;99.90;;;;;;5134475;27;20027;-72
2022/07/21 03:43:17;;;;;;;7.60;5.78;;;18.20;99.90;;;;;;5136750;27;20036;-72
2022/07/21 03:45:43;;;;;;;8.30;6.07;;;18.30;99.10;;;;;;5138071;27;20023;-79
2022/07/21 03:48:09;;;;;;;9.40;6.07;;;18.40;99.30;;;;;;5136649;27;20423;-78
2022/07/21 03:50:38;;;;;;;8.65;5.65;;;18.50;98.40;;;;;;5136880;27;20011;-78
2022/07/21 03:53:04;;;;;;;8.10;5.72;;;18.60;98.20;;;;;;5137784;27;20034;-80
2022/07/21 03:55:30;;;;;;;8.00;5.97;;;18.60;97.30;;;;;;5137899;27;20491;-79
2022/07/21 03:58:03;;;;;;;6.45;5.75;;;18.70;96.50;;;;;;5141074;27;20034;-80
2022/07/21 04:00:38;;;;;;;8.30;6.03;;;18.90;95.60;;;;;;5157487;27;20038;-80
2022/07/21 04:03:05;;;;;;;10.40;6.13;;;19.10;95.40;;;;;;5158603;27;20556;-80
2022/07/21 04:05:31;;;;;;;9.00;6.75;;;19.20;93.80;;;;;;5158486;27;20361;-79
2022/07/21 04:07:58;;;;;;;9.38;7.43;;;19.30;93.80;;;;;;5157230;27;20022;-79
2022/07/21 04:10:27;;;;;;;8.82;6.63;;;19.40;93.50;;;;;;5158268;27;20026;-72
2022/07/21 04:12:55;;;;;;;11.65;7.03;;;19.50;92.10;;;;;;5158326;27;20031;-71
2022/07/21 04:15:21;;;;;;;8.68;7.03;;;19.60;91.10;;;;;;5158152;27;20023;-80
2022/07/21 04:17:48;;;;;;;8.75;7.00;;;19.60;91.80;;;;;;5068660;27;20032;-80
2022/07/21 04:20:14;;;;;;;10.10;7.15;;;19.70;92.10;;;;;;5051554;28;20028;-79
2022/07/21 04:22:41;;;;;;;9.98;7.53;;;19.60;92.70;;;;;;5052720;28;20053;-79
2022/07/21 04:25:08;;;;;;;9.73;6.53;;;19.70;93.20;;;;;;5052869;28;20108;-72
2022/07/21 04:27:34;;;;;;;10.43;7.03;;;19.80;93.70;;;;;;5051460;28;20052;-80
2022/07/21 04:30:01;;;;;;;8.05;6.82;;;19.80;94.40;;;;;;5052639;28;20046;-72
2022/07/21 04:32:26;;;;;;;9.05;5.85;;;19.90;94.30;;;;;;5052796;28;20405;-79
2022/07/21 04:34:52;;;;;;;8.88;7.13;;;20.00;93.10;;;;;;5050991;28;20017;-79
2022/07/21 04:37:18;;;;;;;9.85;6.65;;;20.20;93.00;;;;;;5051477;28;20074;-79
2022/07/21 04:39:44;;;;;;;9.60;7.22;;;20.30;92.60;;;;;;5052509;28;20025;-79
2022/07/21 04:42:10;;;;;;;10.65;7.28;;;20.40;91.90;;;;;;5052610;28;20040;-78
2022/07/21 04:44:35;;;;;;;9.10;6.85;;;20.50;92.00;;;;;;5052293;28;20100;-73
2022/07/21 04:47:01;;;;;;;8.18;6.90;;;20.60;89.50;;;;;;5052374;28;20029;-79
2022/07/21 04:49:27;;;;;;;10.20;7.20;;;20.70;89.70;;;;;;5052367;28;20025;-74
2022/07/21 04:51:53;;;;;;;9.00;6.90;;;20.80;88.60;;;;;;5052409;28;20025;-72
2022/07/21 04:54:18;;;;;;;9.82;6.82;;;20.80;88.50;;;;;;5050211;28;20413;-79
2022/07/21 04:56:44;;;;;;;8.85;7.70;;;20.90;89.00;;;;;;5052339;28;20475;-72
2022/07/21 04:59:10;;;;;;;8.63;6.93;;;20.90;89.80;;;;;;5124103;27;20015;-79
2022/07/21 05:01:37;;;;;;;14.75;7.93;;;21.00;89.50;;;;;;5156002;27;20036;-80
2022/07/21 05:04:03;;;;;;;10.05;7.20;;;21.00;87.70;;;;;;5156178;27;20031;-78
2022/07/21 05:06:29;;;;;;;10.88;7.85;;;21.10;88.10;;;;;;5157153;27;20361;-79
2022/07/21 05:08:54;;;;;;;9.63;7.65;;;21.10;88.40;;;;;;5157576;27;20026;-78
2022/07/21 05:11:20;;;;;;;11.65;7.65;;;21.20;90.00;;;;;;5155685;27;20396;-72
2022/07/21 05:13:46;;;;;;;9.98;7.43;;;21.20;86.80;;;;;;5155667;27;20022;-78
2022/07/21 05:16:11;;;;;;;8.05;7.30;;;21.30;86.20;;;;;;5151018;27;20026;-80
2022/07/21 05:18:37;;;;;;;9.48;7.22;;;21.30;84.90;;;;;;5135102;27;20137;-79
2022/07/21 05:21:03;;;;;;;10.02;6.72;;;21.40;83.40;;;;;;5134831;27;20380;-79
2022/07/21 05:23:29;;;;;;;9.05;6.85;;;21.40;87.00;;;;;;5136134;27;20039;-73
2022/07/21 05:25:54;;;;;;;9.73;7.10;;;21.50;84.90;;;;;;5136083;27;20016;-72
2022/07/21 05:28:20;;;;;;;9.65;7.47;;;21.50;85.50;;;;;;5136239;27;20018;-78
2022/07/21 05:30:46;;;;;;;8.20;7.13;;;21.60;85.80;;;;;;5135951;27;20038;-74
2022/07/21 05:33:11;;;;;;;9.57;6.93;;;21.60;85.00;;;;;;5134701;27;20017;-79
2022/07/21 05:35:37;;;;;;;7.82;6.00;;;21.70;86.40;;;;;;5135970;27;20031;-79
2022/07/21 05:38:03;;;;;;;10.32;6.38;;;21.80;85.70;;;;;;5134639;27;20535;-79
2022/07/21 05:40:28;;;;;;;9.98;6.82;;;22.00;82.70;;;;;;5135695;27;20015;-73
2022/07/21 05:42:54;;;;;;;10.02;6.30;;;22.10;82.20;;;;;;5135656;27;20038;-80
2022/07/21 05:45:20;;;;;;;9.98;6.45;;;22.20;80.70;;;;;;5134336;27;20026;-73
2022/07/21 05:47:45;;;;;;;8.80;6.20;;;22.20;78.40;;;;;;5134443;27;20488;-72
2022/07/21 05:50:12;;;;;;;8.35;6.93;;;22.30;77.60;;;;;;5135432;27;20030;-72
2022/07/21 05:52:38;;;;;;;10.95;6.72;;;22.40;78.60;;;;;;5135381;27;20023;-71
2022/07/21 05:55:06;;;;;;;10.23;6.78;;;22.50;78.80;;;;;;5135372;27;20022;-73
2022/07/21 05:57:32;;;;;;;8.63;5.93;;;22.50;78.00;;;;;;5134407;27;20095;-79
2022/07/21 05:59:58;;;;;;;9.75;5.63;;;22.60;76.60;;;;;;5156170;27;20014;-79
2022/07/21 06:02:24;;;;;;;8.25;7.05;;;22.80;76.00;;;;;;5155984;27;20031;-79
2022/07/21 06:04:50;;;;;;;6.57;5.72;;;22.80;75.40;;;;;;5154747;27;20022;-72
2022/07/21 06:07:16;;;;;;;7.05;5.88;;;22.90;75.00;;;;;;5155896;27;20034;-79
2022/07/21 06:09:42;;;;;;;8.82;6.40;;;23.00;74.20;;;;;;5155910;27;20061;-72
2022/07/21 06:12:08;;;;;;;10.77;5.78;;;23.10;75.10;;;;;;5148886;27;20475;-79
2022/07/21 06:14:33;;;;;;;8.30;5.75;;;23.40;74.30;;;;;;5049854;28;20033;-79
2022/07/21 06:16:59;;;;;;;6.00;5.50;;;23.40;71.40;;;;;;5094479;27;20030;-70
2022/07/21 06:19:25;;;;;;;6.88;5.80;;;23.60;71.30;;;;;;5134739;27;20397;-72
2022/07/21 06:21:51;;;;;;;9.38;6.00;;;23.70;71.10;;;;;;5134629;27;20043;-72
2022/07/21 06:24:19;;;;;;;7.03;5.57;;;23.90;71.00;;;;;;5134699;27;20445;-79
2022/07/21 06:26:45;;;;;;;8.13;5.95;;;24.00;69.50;;;;;;5134875;27;20026;-72
2022/07/21 06:29:10;;;;;;;9.00;5.82;;;24.10;68.70;;;;;;5134766;27;20023;-78
2022/07/21 06:31:36;;;;;;;7.28;5.82;;;24.20;68.20;;;;;;5133572;27;20023;-77
2022/07/21 06:34:02;;;;;;;9.45;6.55;;;24.20;67.60;;;;;;5133589;27;20028;-77
2022/07/21 06:36:28;;;;;;;10.25;5.65;;;24.30;67.90;;;;;;5084193;27;20421;-77
2022/07/21 06:38:53;;;;;;;6.07;5.45;;;24.40;68.10;;;;;;5115574;27;20043;-77
2022/07/21 06:41:19;;;;;;;7.43;5.75;;;24.60;68.20;;;;;;5149058;27;20042;-71
2022/07/21 06:43:45;;;;;;;6.30;5.35;;;24.70;68.10;;;;;;5073740;27;20081;-70
2022/07/21 06:46:10;;;;;;;7.68;5.70;;;24.90;67.60;;;;;;5082676;27;20022;-78
2022/07/21 06:48:36;;;;;;;5.75;4.80;;;25.10;66.50;;;;;;5154278;27;20059;-77
2022/07/21 06:51:02;;;;;;;8.73;5.55;;;25.20;65.70;;;;;;5109708;27;20017;-72
2022/07/21 06:53:28;;;;;;;8.50;5.75;;;25.40;65.30;;;;;;5152150;27;20039;-72
2022/07/21 06:55:53;;;;;;;7.85;5.50;;;25.60;63.60;;;;;;5154046;27;20019;-72
2022/07/21 06:58:22;;;;;;;9.13;4.97;;;25.70;62.40;;;;;;5114106;27;20451;-77
2022/07/21 07:00:49;;;;;;;6.38;5.72;;;25.80;62.10;;;;;;5059753;27;20086;-77
2022/07/21 07:03:15;;;;;;;7.60;5.15;;;26.00;63.40;;;;;;5126406;27;20045;-78
2022/07/21 07:05:42;;;;;;;8.18;5.35;;;26.10;63.10;;;;;;5042496;27;20067;-71
2022/07/21 07:08:08;;;;;;;17.67;6.85;;;26.20;61.60;;;;;;5047912;27;20082;-72
2022/07/21 07:10:34;;;;;;;8.13;5.60;;;26.30;60.50;;;;;;5083832;27;20425;-71
2022/07/21 07:13:01;;;;;;;6.00;5.40;;;26.30;60.10;;;;;;5070255;27;20025;-77
2022/07/21 07:15:27;;;;;;;9.75;5.32;;;26.30;60.20;;;;;;5120394;27;20029;-72
2022/07/21 07:17:54;;;;;;;6.40;5.25;;;26.30;60.70;;;;;;5116415;27;20021;-72
2022/07/21 07:20:21;;;;;;;6.60;5.30;;;26.40;59.70;;;;;;5128319;27;20015;-72
2022/07/21 07:22:47;;;;;;;5.85;5.03;;;26.50;59.50;;;;;;5104167;27;20075;-71
2022/07/21 07:25:17;;;;;;;6.07;4.82;;;26.70;59.20;;;;;;5152862;27;20035;-71
2022/07/21 07:27:48;;;;;;;10.25;5.47;;;26.90;58.70;;;;;;5153297;27;20023;-77
2022/07/21 07:30:15;;;;;;;6.32;5.18;;;27.00;58.80;;;;;;5122478;27;20031;-72
2022/07/21 07:32:42;;;;;;;11.23;5.80;;;27.20;58.10;;;;;;5119003;27;20460;-71
2022/07/21 07:35:10;;;;;;;15.25;5.85;;;27.30;57.10;;;;;;5070339;27;20392;-77
2022/07/21 07:37:38;;;;;;;16.35;6.50;;;27.50;56.40;;;;;;5115717;27;20023;-77
2022/07/21 07:40:10;;;;;;;12.30;5.85;;;27.60;56.70;;;;;;5122991;27;20045;-72
2022/07/21 07:42:36;;;;;;;;;;;27.70;55.60;;;;;;5123276;27;20030;-77
2022/07/21 07:45:04;;;;;;;6.75;5.47;;;27.90;55.00;;;;;;5085423;27;19935;-73
2022/07/21 07:47:30;;;;;;;7.65;4.60;;;27.80;54.60;;;;;;5099955;27;20105;-72
2022/07/21 07:49:56;;;;;;;7.15;5.22;;;27.80;54.90;;;;;;5120706;27;20070;-72
2022/07/21 07:52:22;;;;;;;5.45;4.95;;;28.00;55.10;;;;;;5116749;27;20021;-78
2022/07/21 07:54:48;;;;;;;6.72;4.57;;;27.90;55.50;;;;;;5129259;27;20027;-78
2022/07/21 07:57:13;;;;;;;6.43;4.57;;;28.00;54.50;;;;;;5117862;27;20026;-76
2022/07/21 07:59:39;;;;;;;6.57;5.25;;;28.10;54.70;;;;;;5142164;27;20512;-76
2022/07/21 08:02:05;;;;;;;6.15;5.30;;;28.20;54.80;;;;;;5152522;27;20029;-76
2022/07/21 08:04:30;;;;;;;7.82;4.80;;;28.30;53.90;;;;;;5116882;27;20395;-77
2022/07/21 08:06:56;;;;;;;8.57;6.40;;;28.50;54.40;;;;;;5153211;27;20019;-77
2022/07/21 08:09:22;;;;;;;5.20;4.65;;;28.60;54.40;;;;;;5152626;27;20492;-72
2022/07/21 08:11:48;;;;;;;7.50;4.93;;;28.40;52.70;;;;;;5153393;27;20388;-72
2022/07/21 08:14:15;;;;;;;4.97;4.50;;;28.50;53.80;;;;;;5151423;27;20041;-72
2022/07/21 08:16:41;;;;;;;5.20;4.40;;;28.70;53.30;;;;;;5095262;27;20542;-72
2022/07/21 08:19:07;;;;;;;7.35;5.40;;;28.70;53.60;;;;;;5130108;27;20034;-72
2022/07/21 08:21:33;;;;;;;6.10;5.20;;;28.90;53.40;;;;;;5110478;27;20129;-78
2022/07/21 08:24:00;;;;;;;6.30;4.82;;;28.90;52.00;;;;;;5060164;27;20431;-78
2022/07/21 08:26:26;;;;;;;7.03;4.85;;;29.00;52.10;;;;;;5153083;27;20453;-72
2022/07/21 08:28:53;;;;;;;6.85;5.07;;;29.10;52.20;;;;;;5153853;27;20014;-73
2022/07/21 08:31:19;;;;;;;5.93;4.72;;;29.20;52.00;;;;;;5155999;27;20023;-72
2022/07/21 08:33:44;;;;;;;7.10;5.28;;;29.30;51.20;;;;;;5074758;27;20382;-72
2022/07/21 08:36:10;;;;;;;5.30;4.80;;;29.30;52.90;;;;;;5097529;27;20030;-72
2022/07/21 08:38:36;;;;;;;6.53;4.75;;;29.30;51.90;;;;;;5086411;27;20029;-73
2022/07/21 08:41:02;;;;;;;5.65;4.50;;;29.40;52.10;;;;;;5157788;27;20524;-74
2022/07/21 08:43:29;;;;;;;10.07;5.10;;;29.40;50.70;;;;;;5136068;27;20106;-72
2022/07/21 08:45:56;;;;;;;11.63;4.82;;;29.30;51.30;;;;;;5068987;28;20027;-73
2022/07/21 08:48:26;;;;;;;6.82;4.55;;;29.10;51.00;;;;;;5072341;28;20100;-73
2022/07/21 08:50:52;;;;;;;6.35;4.68;;;29.30;50.80;;;;;;5072411;28;20385;-78
2022/07/21 08:53:17;;;;;;;6.45;4.45;;;29.40;51.80;;;;;;5072429;28;20096;-78
2022/07/21 08:55:43;;;;;;;6.38;4.10;;;29.50;49.10;;;;;;5072346;28;20024;-72
2022/07/21 08:58:11;;;;;;;6.38;4.03;;;29.50;48.90;;;;;;5099854;27;20018;-77
2022/07/21 09:00:41;;;;;;;7.82;4.43;;;29.40;48.90;;;;;;5157515;27;20068;-72
2022/07/21 09:03:22;;;;;;;6.25;4.63;;;29.40;49.10;;;;;;5157385;27;20031;-77
2022/07/21 09:06:13;;;;;;;6.15;4.72;;;29.60;49.60;;;;;;5156842;27;20555;-72
2022/07/21 09:08:43;;;;;;;5.55;4.32;;;29.50;48.10;;;;;;5157337;27;20030;-77
2022/07/21 09:11:15;;;;;;;10.30;4.93;;;29.70;48.30;;;;;;5155874;27;20080;-77
2022/07/21 09:13:42;;;;;;;5.53;4.97;;;29.80;47.70;;;;;;5157345;27;20097;-77
2022/07/21 09:16:09;;;;;;;6.90;4.50;;;30.00;48.00;;;;;;5130325;27;20029;-76
2022/07/21 09:18:47;;;;;;;6.32;4.55;;;30.20;49.30;;;;;;5052063;28;20017;-72
2022/07/21 09:21:16;;;;;;;7.93;4.57;;;30.20;48.60;;;;;;5051992;28;20032;-72
2022/07/21 09:23:42;;;;;;;13.40;5.18;;;30.30;47.70;;;;;;5051980;28;20490;-77
2022/07/21 09:26:07;;;;;;;8.05;5.00;;;30.40;47.10;;;;;;5051700;28;20029;-77
2022/07/21 09:28:33;;;;;;;6.07;4.68;;;30.50;47.50;;;;;;5051805;28;20044;-77
2022/07/21 09:31:11;;;;;;;7.75;4.53;;;30.60;46.40;;;;;;5051834;28;20060;-77
2022/07/21 09:33:40;;;;;;;5.90;4.53;;;30.30;45.60;;;;;;5050623;28;20367;-77
2022/07/21 09:36:10;;;;;;;7.88;4.38;;;30.20;45.20;;;;;;5050443;28;20383;-71
2022/07/21 09:38:41;;;;;;;7.63;4.47;;;30.30;45.30;;;;;;5051576;28;20029;-77
2022/07/21 09:41:18;;;;;;;5.25;4.45;;;30.50;45.50;;;;;;5051930;28;20537;-77
2022/07/21 09:43:45;;;;;;;6.80;4.72;;;30.50;45.50;;;;;;5051654;28;20036;-77
2022/07/21 09:46:31;;;;;;;6.93;4.57;;;30.80;45.20;;;;;;5050237;28;20021;-77
2022/07/21 09:49:00;;;;;;;4.95;4.40;;;30.80;45.50;;;;;;5051489;28;20029;-72
2022/07/21 09:51:41;;;;;;;4.90;4.20;;;30.80;44.70;;;;;;5051557;28;20375;-72
2022/07/21 09:54:09;;;;;;;5.32;4.63;;;31.00;45.50;;;;;;5051694;28;20017;-77
2022/07/21 09:56:38;;;;;;;6.45;3.65;;;31.00;44.50;;;;;;5050204;28;20062;-77
2022/07/21 09:59:05;;;;;;;6.03;4.10;;;31.00;44.70;;;;;;5126674;27;20441;-72
2022/07/21 10:01:32;;;;;;;8.02;4.32;;;30.80;43.50;;;;;;5156416;27;20453;-76
2022/07/21 10:03:59;;;;;;;4.75;3.83;;;31.00;44.80;;;;;;5154731;27;20126;-72
2022/07/21 10:06:27;;;;;;;5.32;4.30;;;30.90;43.90;;;;;;5156228;27;20022;-77
2022/07/21 10:08:54;;;;;;;5.20;3.75;;;30.70;42.50;;;;;;5154894;27;20037;-72
2022/07/21 10:11:20;;;;;;;4.45;4.05;;;30.70;43.20;;;;;;5156144;27;20019;-71
2022/07/21 10:13:46;;;;;;;7.00;4.45;;;30.80;42.50;;;;;;5156150;27;20093;-72
2022/07/21 10:16:12;;;;;;;6.10;3.63;;;30.70;44.10;;;;;;5124595;27;20073;-71
2022/07/21 10:19:21;;;;;;;3.22;3.03;;;30.80;42.60;;;;;;5049986;28;20021;-72
2022/07/21 10:22:25;;;;;;;4.43;3.85;;;31.00;43.20;;;;;;5053395;28;20080;-77
2022/07/21 10:24:52;;;;;;;10.20;4.07;;;31.30;43.90;;;;;;5049762;28;20065;-71
2022/07/21 10:27:17;;;;;;;5.03;4.13;;;31.30;43.60;;;;;;5051124;28;20393;-77
2022/07/21 10:30:03;;;;;;;5.78;4.30;;;31.40;43.50;;;;;;5049689;28;20028;-72
2022/07/21 10:32:35;;;;;;;5.85;3.20;;;31.50;43.10;;;;;;5051024;28;20104;-77
2022/07/21 10:35:28;;;;;;;3.85;3.25;;;31.60;40.70;;;;;;5050911;28;20033;-72
2022/07/21 10:37:55;;;;;;;3.65;3.10;;;31.30;40.30;;;;;;5051077;28;20025;-75
2022/07/21 10:40:20;;;;;;;4.32;3.90;;;31.20;42.10;;;;;;5050862;28;20032;-76
2022/07/21 10:43:06;;;;;;;5.95;3.75;;;31.40;42.70;;;;;;5050839;28;20478;-72
2022/07/21 10:45:39;;;;;;;4.47;3.60;;;31.50;41.00;;;;;;5053981;28;20386;-77
2022/07/21 10:48:07;;;;;;;6.38;3.92;;;31.50;39.90;;;;;;5049655;28;20021;-72
2022/07/21 10:50:42;;;;;;;9.02;3.85;;;31.30;41.20;;;;;;5050040;28;20021;-72
2022/07/21 10:53:18;;;;;;;4.53;2.85;;;31.30;40.50;;;;;;5050802;28;20112;-76
2022/07/21 10:55:52;;;;;;;4.85;3.60;;;31.30;40.10;;;;;;5049377;28;20503;-72
2022/07/21 10:58:27;;;;;;;5.68;3.85;;;31.40;41.10;;;;;;5094192;27;20031;-77
2022/07/21 11:00:56;;;;;;;6.57;4.28;;;31.40;41.00;;;;;;5155131;27;20498;-76
2022/07/21 11:03:29;;;;;;;6.40;3.83;;;31.50;41.40;;;;;;5153986;27;20042;-72
2022/07/21 11:06:14;;;;;;;5.30;3.88;;;31.40;42.20;;;;;;5155290;27;20019;-72
2022/07/21 11:08:52;;;;;;;5.10;3.22;;;31.20;41.20;;;;;;5155310;27;20046;-76
2022/07/21 11:11:26;;;;;;;4.22;3.33;;;31.30;42.00;;;;;;5155231;27;20027;-76
2022/07/21 11:14:17;;;;;;;7.32;3.72;;;31.20;41.50;;;;;;5153924;27;20023;-72
2022/07/21 11:16:44;;;;;;;4.90;3.20;;;31.20;41.80;;;;;;5099832;27;20386;-77
2022/07/21 11:19:37;;;;;;;3.65;3.25;;;31.20;42.00;;;;;;5050437;28;20021;-72
2022/07/21 11:22:04;;;;;;;4.85;3.60;;;31.30;40.10;;;;;;5048892;28;20049;-77
2022/07/21 11:24:30;;;;;;;5.85;3.38;;;31.40;41.00;;;;;;5050278;28;20021;-72
2022/07/21 11:26:57;;;;;;;4.57;3.40;;;31.50;41.90;;;;;;5050078;28;20032;-77
2022/07/21 11:29:23;;;;;;;19.20;5.05;;;31.60;41.30;;;;;;5050092;28;20070;-72
2022/07/21 11:31:49;;;;;;;6.63;3.97;;;31.70;39.90;;;;;;5050101;28;20025;-72
2022/07/21 11:34:15;;;;;;;5.75;3.50;;;31.80;39.80;;;;;;5050209;28;20037;-76
2022/07/21 11:36:41;;;;;;;5.53;3.50;;;32.00;40.40;;;;;;5050090;28;20394;-76
2022/07/21 11:39:18;;;;;;;4.13;3.40;;;32.00;39.90;;;;;;5048927;28;20017;-77
2022/07/21 11:41:45;;;;;;;5.85;3.67;;;32.10;40.20;;;;;;5050160;28;20485;-71
2022/07/21 11:44:11;;;;;;;5.68;3.70;;;32.10;40.40;;;;;;5050018;28;20494;-77
2022/07/21 11:46:57;;;;;;;7.22;3.75;;;32.20;40.00;;;;;;5050022;28;20036;-76
2022/07/21 11:49:23;;;;;;;3.38;3.08;;;32.30;40.20;;;;;;5049838;28;20028;-76
2022/07/21 11:52:00;;;;;;;4.40;3.35;;;32.20;40.10;;;;;;5049893;28;20390;-77
2022/07/21 11:54:42;;;;;;;4.60;4.20;;;32.40;40.80;;;;;;5050042;28;20017;-77
2022/07/21 11:57:08;;;;;;;8.05;4.25;;;32.30;40.90;;;;;;5049870;28;20033;-77
2022/07/21 11:59:36;;;;;;;5.03;3.83;;;32.30;40.80;;;;;;5150567;27;20030;-72
2022/07/21 12:02:08;;;;;;;3.92;3.58;;;32.30;41.20;;;;;;5155140;27;20406;-76
2022/07/21 12:04:33;;;;;;;;;;;32.30;41.00;;;;;;5159276;27;20023;-71
2022/07/21 12:07:00;;;;;;;6.53;4.07;;;32.20;38.90;;;;;;5159042;27;19917;-72
2022/07/21 12:09:26;;;;;;;6.28;4.20;;;32.20;39.90;;;;;;5158500;27;20029;-77
2022/07/21 12:11:52;;;;;;;6.72;4.55;;;32.10;40.10;;;;;;5158432;27;20023;-72
2022/07/21 12:14:18;;;;;;;4.78;3.72;;;32.20;40.60;;;;;;5158433;27;20048;-73
2022/07/21 12:16:51;;;;;;;5.25;3.80;;;32.20;40.00;;;;;;5100526;27;20033;-77
2022/07/21 12:19:18;;;;;;;4.80;3.65;;;32.30;39.40;;;;;;5053333;28;20070;-72
2022/07/21 12:21:50;;;;;;;6.50;3.22;;;32.20;39.70;;;;;;5052637;28;20448;-76
2022/07/21 12:24:17;;;;;;;4.85;3.47;;;32.30;40.00;;;;;;5053037;28;20040;-72
2022/07/21 12:26:43;;;;;;;4.68;3.53;;;32.30;39.80;;;;;;5052922;28;20017;-72
2022/07/21 12:29:09;;;;;;;9.27;3.58;;;32.40;39.80;;;;;;5053034;28;20447;-72
2022/07/21 12:31:37;;;;;;;4.43;3.38;;;32.60;38.60;;;;;;5052582;28;20108;-72
2022/07/21 12:34:17;;;;;;;4.43;4.00;;;32.70;37.70;;;;;;5052843;28;20050;-72
2022/07/21 12:36:43;;;;;;;3.80;3.50;;;32.50;39.40;;;;;;5052731;28;20474;-77
2022/07/21 12:42:09;;;;;;;4.55;3.63;;;32.70;38.80;;;;;;5052501;28;20098;-72
2022/07/21 12:44:36;;;;;;;5.60;4.00;;;32.70;39.60;;;;;;5052622;28;20013;-77
2022/07/21 12:47:20;;;;;;;6.75;4.18;;;32.60;39.10;;;;;;5052615;28;20061;-72
2022/07/21 12:49:57;;;;;;;4.25;3.80;;;32.60;39.30;;;;;;5052598;28;20025;-72
2022/07/21 12:52:24;;;;;;;4.53;3.95;;;32.70;38.80;;;;;;5052588;28;20071;-71
2022/07/21 12:54:50;;;;;;;3.72;3.40;;;32.80;38.90;;;;;;5051349;28;20028;-76